Time;durP1;ratioP1;P1;durP2;ratioP2;P2;SDS_P1;SDS_P2;PMS_P1;PMS_P2;Temp;Humidity;BMP_temperature;BMP_pressure;BME280_temperature;BME280_humidity;BME280_pressure;Samples;Min_cycle;Max_cycle;Signal;HPM_P1;HPM_P2
2023/05/30 00:01:35;;;;;;;7.97;3.00;;;;;;;11.19;36.58;96128.00;4903703;29;20096;-72
2023/05/30 00:04:01;;;;;;;8.82;2.97;;;;;;;11.03;35.05;96123.50;4876474;29;20075;-72
2023/05/30 00:06:27;;;;;;;9.48;3.40;;;;;;;11.02;37.00;96126.34;4888958;29;20403;-72
2023/05/30 00:08:53;;;;;;;9.18;3.20;;;;;;;11.07;38.45;96121.34;4905100;29;20696;-72
2023/05/30 00:11:19;;;;;;;12.13;4.85;;;;;;;11.02;37.82;96129.84;4875797;29;20024;-72
2023/05/30 00:13:44;;;;;;;9.93;5.00;;;;;;;11.03;37.83;96128.84;4904991;29;20096;-71
2023/05/30 00:16:14;;;;;;;10.43;4.38;;;;;;;10.93;36.36;96131.69;4905281;29;20666;-71
2023/05/30 00:18:39;;;;;;;12.75;4.90;;;;;;;10.82;38.47;96127.53;4910156;29;20435;-71
2023/05/30 00:21:09;;;;;;;11.40;3.92;;;;;;;10.86;37.54;96131.53;4891307;29;20036;-71
2023/05/30 00:23:36;;;;;;;12.10;4.50;;;;;;;10.92;37.99;96139.84;4875699;29;20447;-72
2023/05/30 00:26:01;;;;;;;10.23;4.70;;;;;;;10.98;37.46;96139.19;4895889;29;20108;-71
2023/05/30 00:28:27;;;;;;;11.10;4.22;;;;;;;11.00;37.07;96137.16;4910044;29;20107;-72
2023/05/30 00:30:52;;;;;;;10.90;3.40;;;;;;;10.94;35.87;96138.66;4888026;29;20048;-72
2023/05/30 00:33:18;;;;;;;9.98;3.58;;;;;;;10.90;35.49;96142.66;4904231;29;20043;-72
2023/05/30 00:35:43;;;;;;;9.85;3.40;;;;;;;10.83;36.78;96139.00;4891336;29;20028;-72
2023/05/30 00:38:09;;;;;;;7.78;2.97;;;;;;;10.64;36.67;96135.66;4903469;29;20048;-73
2023/05/30 00:40:34;;;;;;;7.90;3.45;;;;;;;10.68;36.30;96130.84;4904472;29;20395;-72
2023/05/30 00:43:00;;;;;;;11.98;3.20;;;;;;;10.60;36.59;96142.31;4907299;29;20032;-72
2023/05/30 00:45:25;;;;;;;11.23;3.30;;;;;;;10.54;37.20;96135.00;4908188;29;20046;-73
2023/05/30 00:47:53;;;;;;;9.18;3.30;;;;;;;10.28;37.90;96134.16;4908855;29;20036;-72
2023/05/30 00:50:18;;;;;;;11.77;3.20;;;;;;;10.04;37.42;96137.53;4908720;29;20107;-72
2023/05/30 00:52:47;;;;;;;15.70;3.20;;;;;;;10.00;37.94;96139.69;4893242;29;20063;-72
2023/05/30 00:55:13;;;;;;;8.55;3.00;;;;;;;9.83;38.40;96130.84;4900043;29;20642;-72
2023/05/30 00:57:39;;;;;;;12.82;3.40;;;;;;;10.03;38.42;96125.25;4877874;29;20031;-72
2023/05/30 01:00:05;;;;;;;9.80;3.30;;;;;;;10.08;37.76;96117.63;4894485;29;20067;-72
2023/05/30 01:02:33;;;;;;;12.75;3.20;;;;;;;10.21;37.22;96125.97;4952037;23;20043;-76
2023/05/30 01:04:59;;;;;;;10.13;3.05;;;;;;;10.32;36.63;96124.00;4928816;29;20023;-76
2023/05/30 01:07:24;;;;;;;10.75;2.90;;;;;;;10.29;36.96;96130.47;4945017;28;20522;-76
2023/05/30 01:09:52;;;;;;;8.50;2.97;;;;;;;10.27;37.53;96131.66;4944938;28;20031;-75
2023/05/30 01:12:33;;;;;;;11.73;3.10;;;;;;;10.39;36.99;96126.81;4923260;29;20501;-75
2023/05/30 01:15:13;;;;;;;12.30;3.30;;;;;;;10.45;36.89;96140.34;4945620;28;21038;-75
2023/05/30 01:18:04;;;;;;;9.13;3.00;;;;;;;10.51;36.89;96130.00;4921442;28;20689;-75
2023/05/30 01:20:32;;;;;;;10.68;3.10;;;;;;;10.43;36.74;96120.16;4943976;29;20655;-75
2023/05/30 01:23:18;;;;;;;14.10;3.38;;;;;;;10.39;36.58;96129.47;4922221;28;20064;-76
2023/05/30 01:26:02;;;;;;;7.43;2.90;;;;;;;10.43;36.33;96126.34;4944150;28;20105;-77
2023/05/30 01:28:30;;;;;;;11.07;3.17;;;;;;;10.36;36.93;96128.84;4921568;28;20039;-75
2023/05/30 01:30:56;;;;;;;9.02;2.90;;;;;;;10.36;36.31;96120.00;4912939;29;20031;-76
2023/05/30 01:33:22;;;;;;;9.65;3.50;;;;;;;10.24;36.61;96127.47;4911601;29;20115;-77
2023/05/30 01:35:47;;;;;;;11.75;3.15;;;;;;;10.18;37.21;96136.09;4911046;29;20035;-77
2023/05/30 01:38:13;;;;;;;9.73;3.47;;;;;;;10.05;37.58;96129.44;4923121;29;20051;-77
2023/05/30 01:40:38;;;;;;;10.82;3.70;;;;;;;10.03;37.12;96128.72;4911651;28;20390;-76
2023/05/30 01:43:07;;;;;;;9.82;3.33;;;;;;;10.09;37.26;96133.44;4934001;29;20679;-75
2023/05/30 01:45:37;;;;;;;;;;;;;;;10.09;36.94;96138.75;4944765;28;20041;-75
2023/05/30 01:48:21;;;;;;;9.38;3.25;;;;;;;10.02;37.07;96129.72;4934733;29;19920;-75
2023/05/30 01:50:48;;;;;;;9.73;3.40;;;;;;;10.05;36.68;96141.84;4912204;29;20406;-75
2023/05/30 01:53:17;;;;;;;10.15;3.55;;;;;;;9.72;37.67;96146.06;4944297;28;20034;-76
2023/05/30 01:55:44;;;;;;;14.40;3.47;;;;;;;9.68;37.72;96151.84;4927978;29;20525;-75
2023/05/30 01:58:09;;;;;;;13.10;3.70;;;;;;;9.71;37.45;96143.56;4918374;29;20032;-76
2023/05/30 02:00:35;;;;;;;9.68;3.47;;;;;;;9.67;37.98;96148.38;4933377;29;20234;-75
2023/05/30 02:03:00;;;;;;;11.25;3.40;;;;;;;9.57;38.22;96148.50;4927764;29;20090;-75
2023/05/30 02:05:26;;;;;;;9.77;3.17;;;;;;;9.43;38.64;96146.44;4944426;28;20027;-75
2023/05/30 02:07:51;;;;;;;10.48;3.00;;;;;;;9.46;38.33;96151.44;4943833;28;20438;-76
2023/05/30 02:10:16;;;;;;;10.95;3.65;;;;;;;9.48;38.74;96149.44;4926771;29;20044;-76
2023/05/30 02:12:42;;;;;;;14.95;3.10;;;;;;;9.45;38.29;96155.06;4945691;28;20303;-75
2023/05/30 02:15:07;;;;;;;9.68;3.30;;;;;;;9.35;38.39;96155.16;4944530;28;20035;-76
2023/05/30 02:17:33;;;;;;;10.05;3.40;;;;;;;9.35;38.52;96149.84;4943513;28;20445;-76
2023/05/30 02:19:59;;;;;;;10.45;4.07;;;;;;;9.36;39.80;96156.00;4943710;29;20165;-76
2023/05/30 02:22:25;;;;;;;11.32;3.70;;;;;;;9.25;39.68;96149.97;4943829;28;20054;-76
2023/05/30 02:24:51;;;;;;;12.23;3.85;;;;;;;9.23;39.21;96146.66;4930752;29;20122;-76
2023/05/30 02:27:16;;;;;;;13.75;3.33;;;;;;;8.92;40.15;96145.25;4940942;29;20050;-76
2023/05/30 02:29:41;;;;;;;9.73;3.40;;;;;;;9.07;40.38;96152.66;4942892;28;20454;-76
2023/05/30 02:32:07;;;;;;;10.15;3.90;;;;;;;9.02;40.97;96150.50;4943538;29;20188;-76
2023/05/30 02:34:32;;;;;;;11.57;3.50;;;;;;;8.89;39.90;96147.38;4940499;29;20032;-76
2023/05/30 02:36:59;;;;;;;15.43;3.53;;;;;;;8.84;39.70;96153.13;4943733;28;20076;-76
2023/05/30 02:39:24;;;;;;;9.52;3.22;;;;;;;8.92;39.03;96139.94;4942967;29;20035;-76
2023/05/30 02:41:50;;;;;;;10.65;2.88;;;;;;;9.01;38.99;96145.34;4916014;29;20498;-76
2023/05/30 02:44:15;;;;;;;9.20;3.83;;;;;;;8.98;40.81;96143.00;4943114;29;20034;-77
2023/05/30 02:46:40;;;;;;;11.93;3.42;;;;;;;9.14;39.15;96144.91;4941071;28;20501;-76
2023/05/30 02:49:06;;;;;;;12.18;3.42;;;;;;;8.95;39.14;96149.44;4925356;29;20068;-76
2023/05/30 02:51:31;;;;;;;11.60;2.90;;;;;;;9.00;39.50;96157.78;4917554;29;20031;-77
2023/05/30 02:53:57;;;;;;;13.20;3.63;;;;;;;9.19;38.50;96150.59;4942604;28;20425;-76
2023/05/30 02:56:25;;;;;;;13.00;3.55;;;;;;;8.36;41.62;96148.06;4915390;28;20035;-75
2023/05/30 02:58:51;;;;;;;14.10;3.63;;;;;;;8.39;40.88;96141.63;4908479;29;20413;-77
2023/05/30 03:01:16;;;;;;;9.32;3.33;;;;;;;8.64;41.05;96148.00;4941039;28;20078;-76
2023/05/30 03:03:42;;;;;;;8.65;3.33;;;;;;;8.89;39.78;96144.72;4925441;29;20501;-77
2023/05/30 03:06:07;;;;;;;9.85;3.28;;;;;;;8.94;39.32;96145.06;4939593;28;20421;-76
2023/05/30 03:08:33;;;;;;;14.32;4.03;;;;;;;8.90;39.62;96141.06;4919315;28;20042;-75
2023/05/30 03:10:58;;;;;;;11.75;3.30;;;;;;;8.85;39.31;96140.69;4942683;28;20386;-75
2023/05/30 03:13:23;;;;;;;10.43;2.97;;;;;;;8.75;39.73;96146.94;4942170;28;20061;-75
2023/05/30 03:15:49;;;;;;;11.77;3.65;;;;;;;8.76;40.33;96140.63;4943445;28;20030;-75
2023/05/30 03:18:14;;;;;;;9.98;3.05;;;;;;;8.65;40.11;96143.53;4942264;28;20043;-75
2023/05/30 03:20:40;;;;;;;15.20;3.33;;;;;;;8.74;40.05;96142.59;4942582;28;20513;-75
2023/05/30 03:23:06;;;;;;;13.38;3.20;;;;;;;8.72;39.81;96146.41;4942956;29;20043;-75
2023/05/30 03:25:32;;;;;;;9.52;3.10;;;;;;;8.80;39.42;96149.97;4941464;28;20031;-75
2023/05/30 03:27:57;;;;;;;11.60;3.15;;;;;;;8.51;39.83;96147.56;4918156;29;20426;-75
2023/05/30 03:30:26;;;;;;;10.18;3.15;;;;;;;8.54;39.50;96153.38;4924673;29;20108;-75
2023/05/30 03:32:52;;;;;;;9.05;2.90;;;;;;;8.21;40.36;96147.78;4932631;28;20053;-75
2023/05/30 03:35:17;;;;;;;8.98;3.30;;;;;;;8.34;40.30;96152.72;4917444;29;20035;-75
2023/05/30 03:37:43;;;;;;;12.63;3.10;;;;;;;8.37;40.51;96156.88;4922864;29;20043;-75
2023/05/30 03:40:10;;;;;;;9.27;3.05;;;;;;;8.43;40.64;96158.91;4942377;29;20050;-75
2023/05/30 03:42:35;;;;;;;10.73;3.20;;;;;;;8.44;40.22;96161.41;4908754;29;20047;-75
2023/05/30 03:45:01;;;;;;;14.55;3.75;;;;;;;8.53;40.54;96166.78;4933835;29;20062;-75
2023/05/30 03:47:26;;;;;;;10.32;2.90;;;;;;;8.47;40.93;96162.94;4942074;29;20027;-75
2023/05/30 03:49:52;;;;;;;9.30;2.83;;;;;;;8.59;40.05;96166.19;4940873;28;20588;-75
2023/05/30 03:52:17;;;;;;;9.43;3.08;;;;;;;8.50;39.85;96162.63;4917560;29;20036;-75
2023/05/30 03:54:43;;;;;;;9.90;3.30;;;;;;;8.57;39.69;96163.69;4919825;29;20058;-75
2023/05/30 03:57:09;;;;;;;10.02;3.33;;;;;;;8.68;39.60;96164.47;4918289;29;20039;-75
2023/05/30 03:59:34;;;;;;;11.60;3.33;;;;;;;8.67;40.57;96163.63;4941998;29;20079;-75
2023/05/30 04:01:59;;;;;;;6.72;2.85;;;;;;;8.67;39.85;96178.72;4934060;28;20054;-76
2023/05/30 04:04:26;;;;;;;11.73;2.90;;;;;;;8.73;39.56;96172.78;4942005;29;20020;-76
2023/05/30 04:06:51;;;;;;;12.70;3.17;;;;;;;8.61;39.68;96180.16;4941145;28;20050;-76
2023/05/30 04:09:17;;;;;;;11.35;3.08;;;;;;;8.74;39.51;96178.94;4932840;28;20043;-76
2023/05/30 04:11:43;;;;;;;12.80;3.05;;;;;;;8.76;39.80;96182.28;4941732;28;20085;-76
2023/05/30 04:14:08;;;;;;;12.45;3.25;;;;;;;8.46;40.75;96187.00;4924411;29;20325;-76
2023/05/30 04:16:34;;;;;;;9.15;3.38;;;;;;;8.40;42.37;96183.94;4941502;28;20050;-76
2023/05/30 04:18:59;;;;;;;14.55;3.40;;;;;;;8.69;40.39;96184.72;4944740;29;20027;-76
2023/05/30 04:21:26;;;;;;;11.45;3.05;;;;;;;8.76;41.11;96185.78;4945029;28;20698;-76
2023/05/30 04:23:51;;;;;;;8.90;3.10;;;;;;;8.90;40.86;96186.19;4936530;29;20058;-76
2023/05/30 04:26:17;;;;;;;9.05;3.30;;;;;;;8.97;40.22;96187.28;4944514;28;20113;-76
2023/05/30 04:28:43;;;;;;;11.70;2.83;;;;;;;8.99;38.93;96188.00;4945199;28;20445;-76
2023/05/30 04:31:09;;;;;;;12.43;3.22;;;;;;;9.30;38.82;96184.88;4912463;29;20041;-76
2023/05/30 04:33:35;;;;;;;13.75;3.10;;;;;;;9.40;39.36;96191.91;4928127;29;20403;-76
2023/05/30 04:36:08;;;;;;;7.82;2.90;;;;;;;9.58;38.21;96191.84;4944448;29;20595;-76
2023/05/30 04:38:34;;;;;;;8.63;2.55;;;;;;;9.79;37.30;96186.16;4921873;29;20039;-77
2023/05/30 04:41:01;;;;;;;12.15;3.00;;;;;;;9.73;37.70;96186.78;4927353;29;20071;-76
2023/05/30 04:43:27;;;;;;;9.40;2.88;;;;;;;9.71;37.72;96183.44;4921874;29;20035;-77
2023/05/30 04:45:53;;;;;;;14.15;3.33;;;;;;;9.94;37.76;96182.88;4944423;28;20039;-77
2023/05/30 04:48:18;;;;;;;12.15;3.13;;;;;;;9.73;37.70;96194.78;4944480;29;20335;-77
2023/05/30 04:50:47;;;;;;;9.05;3.13;;;;;;;10.13;37.67;96192.47;4944919;28;20070;-77
2023/05/30 04:53:15;;;;;;;10.52;2.80;;;;;;;10.28;37.35;96198.00;4927851;29;20473;-76
2023/05/30 04:55:41;;;;;;;12.15;3.00;;;;;;;10.19;37.69;96199.81;4944886;29;20031;-77
2023/05/30 04:58:06;;;;;;;10.63;3.30;;;;;;;10.42;37.78;96199.22;4927579;29;20345;-77
2023/05/30 05:00:32;;;;;;;16.40;2.90;;;;;;;10.08;37.79;96200.94;4944472;28;20031;-78
2023/05/30 05:02:57;;;;;;;11.57;3.17;;;;;;;10.43;36.83;96198.22;4945343;29;20281;-78
2023/05/30 05:05:23;;;;;;;10.80;3.10;;;;;;;10.67;36.74;96193.91;4943259;28;20495;-78
2023/05/30 05:07:48;;;;;;;9.73;2.70;;;;;;;10.88;35.91;96193.44;4944802;28;20038;-78
2023/05/30 05:10:14;;;;;;;9.95;2.78;;;;;;;11.06;35.53;96189.78;4944079;28;20122;-78
2023/05/30 05:12:39;;;;;;;9.00;2.75;;;;;;;10.62;36.53;96183.75;4945577;28;20031;-78
2023/05/30 05:15:05;;;;;;;10.00;2.88;;;;;;;11.21;35.16;96189.13;4924444;29;20440;-78
2023/05/30 05:17:31;;;;;;;8.00;2.95;;;;;;;11.38;34.74;96185.47;4945105;28;20035;-78
2023/05/30 05:19:56;;;;;;;9.80;3.40;;;;;;;11.42;34.61;96185.94;4919509;29;20671;-78
2023/05/30 05:22:22;;;;;;;10.23;2.90;;;;;;;11.49;36.50;96191.44;4944275;28;20050;-78
2023/05/30 05:24:47;;;;;;;9.65;2.63;;;;;;;11.64;34.33;96186.25;4936871;28;20531;-78
2023/05/30 05:27:13;;;;;;;7.30;2.60;;;;;;;11.75;34.00;96198.38;4944341;29;20046;-78
2023/05/30 05:29:38;;;;;;;8.63;2.92;;;;;;;11.85;34.28;96203.50;4919759;29;20043;-78
2023/05/30 05:32:04;;;;;;;8.57;2.75;;;;;;;12.02;33.62;96201.63;4944800;29;20402;-79
2023/05/30 05:34:29;;;;;;;9.70;2.92;;;;;;;12.25;33.64;96207.06;4921886;29;20043;-79
2023/05/30 05:36:55;;;;;;;9.48;2.90;;;;;;;12.14;33.89;96210.13;4921412;29;20086;-78
2023/05/30 05:39:20;;;;;;;7.80;2.45;;;;;;;12.38;33.32;96209.16;4924075;29;20044;-79
2023/05/30 05:41:45;;;;;;;12.52;3.20;;;;;;;12.03;33.26;96212.13;4943765;28;20047;-78
2023/05/30 05:44:11;;;;;;;8.75;2.60;;;;;;;11.97;34.55;96217.31;4943433;29;20387;-79
2023/05/30 05:46:36;;;;;;;11.05;2.80;;;;;;;12.28;32.41;96219.22;4941676;28;20035;-79
2023/05/30 05:49:02;;;;;;;7.97;2.50;;;;;;;12.61;32.31;96221.72;4940018;28;20090;-79
2023/05/30 05:51:28;;;;;;;7.47;2.55;;;;;;;12.74;32.63;96221.13;4943500;29;20031;-79
2023/05/30 05:53:53;;;;;;;7.07;2.60;;;;;;;12.64;33.03;96221.38;4940882;28;20346;-78
2023/05/30 05:56:18;;;;;;;7.97;2.67;;;;;;;12.84;32.41;96225.41;4944221;29;20122;-79
2023/05/30 05:58:44;;;;;;;7.75;2.60;;;;;;;12.57;32.83;96219.59;4943360;28;20039;-79
2023/05/30 06:01:09;;;;;;;10.70;2.85;;;;;;;12.78;32.22;96227.78;4943274;28;20047;-78
2023/05/30 06:03:35;;;;;;;12.98;3.00;;;;;;;12.87;33.02;96220.56;4941779;29;20450;-78
2023/05/30 06:06:00;;;;;;;7.00;2.60;;;;;;;12.97;32.74;96227.50;4943217;28;20933;-79
2023/05/30 06:08:26;;;;;;;11.73;3.10;;;;;;;13.29;32.82;96230.94;4942391;28;20035;-78
2023/05/30 06:10:51;;;;;;;12.32;3.10;;;;;;;12.60;31.81;96233.41;4942756;29;20027;-79
2023/05/30 06:13:17;;;;;;;8.85;2.88;;;;;;;13.08;31.81;96226.28;4926173;28;20422;-79
2023/05/30 06:15:42;;;;;;;12.85;2.90;;;;;;;13.29;31.73;96225.59;4942417;28;20102;-69
2023/05/30 06:18:07;;;;;;;10.45;2.75;;;;;;;13.22;31.23;96219.31;4936195;28;20070;-68
2023/05/30 06:20:33;;;;;;;12.70;2.80;;;;;;;13.54;30.45;96217.34;4937767;28;20430;-68
2023/05/30 06:22:58;;;;;;;8.40;3.03;;;;;;;13.58;31.08;96221.31;4943619;29;20034;-68
2023/05/30 06:25:25;;;;;;;12.65;2.92;;;;;;;13.46;30.31;96220.13;4942220;28;20042;-68
2023/05/30 06:27:51;;;;;;;7.60;2.95;;;;;;;13.82;30.11;96227.44;4941790;29;20031;-68
2023/05/30 06:30:17;;;;;;;8.95;2.95;;;;;;;13.99;31.38;96238.00;4939913;28;20047;-68
2023/05/30 06:32:42;;;;;;;10.38;3.00;;;;;;;13.93;31.78;96232.38;4939914;28;20079;-68
2023/05/30 06:35:08;;;;;;;7.22;2.70;;;;;;;14.11;30.29;96227.66;4940802;29;20272;-68
2023/05/30 06:37:33;;;;;;;8.95;2.83;;;;;;;14.36;28.45;96230.03;4941506;28;20450;-68
2023/05/30 06:39:59;;;;;;;9.63;3.70;;;;;;;14.41;29.34;96228.44;4933990;28;20548;-68
2023/05/30 06:42:24;;;;;;;7.65;3.45;;;;;;;14.69;30.24;96235.75;4937094;28;20489;-68
2023/05/30 06:44:49;;;;;;;9.52;3.47;;;;;;;14.81;29.67;96236.13;4941613;28;20046;-68
2023/05/30 06:47:15;;;;;;;6.90;3.40;;;;;;;14.97;27.85;96237.75;4937444;29;20027;-68
2023/05/30 06:49:40;;;;;;;7.20;2.90;;;;;;;15.08;29.55;96241.78;4939952;28;20213;-68
2023/05/30 06:52:06;;;;;;;7.90;3.70;;;;;;;15.29;28.40;96240.09;4937534;29;20751;-68
2023/05/30 06:54:34;;;;;;;9.60;4.20;;;;;;;15.24;27.77;96243.34;4941295;28;20050;-69
2023/05/30 06:57:02;;;;;;;10.05;3.97;;;;;;;15.38;28.88;96243.47;4933756;28;20043;-68
2023/05/30 06:59:28;;;;;;;11.15;4.93;;;;;;;15.46;28.48;96240.66;4934598;28;20043;-68
2023/05/30 07:01:54;;;;;;;12.88;3.63;;;;;;;15.62;28.56;96249.47;4919545;28;20051;-68
2023/05/30 07:04:19;;;;;;;9.23;4.03;;;;;;;15.50;28.27;96251.81;4942024;29;20505;-68
2023/05/30 07:06:45;;;;;;;10.52;3.50;;;;;;;15.67;28.23;96252.38;4936617;28;20097;-68
2023/05/30 07:09:11;;;;;;;6.97;3.88;;;;;;;15.90;27.98;96248.63;4941854;28;20035;-68
2023/05/30 07:11:36;;;;;;;8.93;4.25;;;;;;;15.96;27.78;96252.38;4942128;28;20579;-68
2023/05/30 07:14:01;;;;;;;6.78;4.30;;;;;;;16.12;27.98;96249.38;4940503;28;20170;-68
2023/05/30 07:16:28;;;;;;;11.48;3.13;;;;;;;16.32;27.37;96254.03;4938287;28;20079;-68
2023/05/30 07:18:54;;;;;;;10.55;4.65;;;;;;;16.16;27.24;96259.72;4932221;28;20106;-68
2023/05/30 07:21:20;;;;;;;8.32;2.78;;;;;;;16.51;26.33;96257.88;4936013;28;20039;-67
2023/05/30 07:23:45;;;;;;;10.23;4.15;;;;;;;16.56;27.56;96261.81;4935526;29;20046;-68
2023/05/30 07:26:10;;;;;;;11.68;4.75;;;;;;;16.53;26.54;96263.06;4936442;28;20054;-68
2023/05/30 07:28:36;;;;;;;10.15;4.00;;;;;;;16.67;27.39;96261.25;4935738;28;20346;-68
2023/05/30 07:31:01;;;;;;;10.18;3.55;;;;;;;16.97;27.03;96263.59;4939778;29;20039;-67
2023/05/30 07:33:27;;;;;;;10.13;4.00;;;;;;;16.76;26.14;96254.63;4941202;28;20031;-68
2023/05/30 07:35:52;;;;;;;10.93;3.97;;;;;;;17.07;26.61;96265.06;4935732;29;20031;-68
2023/05/30 07:38:17;;;;;;;10.43;4.47;;;;;;;17.31;26.55;96265.53;4937290;28;20043;-68
2023/05/30 07:40:43;;;;;;;10.55;4.00;;;;;;;17.45;24.54;96264.53;4935523;28;20276;-68
2023/05/30 07:43:08;;;;;;;14.50;5.20;;;;;;;17.54;25.73;96259.75;4942361;29;20113;-68
2023/05/30 07:45:34;;;;;;;11.73;6.57;;;;;;;17.62;25.56;96262.25;4938179;28;20572;-68
2023/05/30 07:47:59;;;;;;;12.57;6.78;;;;;;;17.83;25.01;96254.97;4941344;29;20035;-68
2023/05/30 07:50:24;;;;;;;7.82;3.47;;;;;;;18.05;24.12;96254.75;4938821;28;20502;-68
2023/05/30 07:52:50;;;;;;;16.20;5.47;;;;;;;17.81;24.97;96257.03;4939665;28;20734;-68
2023/05/30 07:55:15;;;;;;;12.88;7.97;;;;;;;18.04;25.07;96263.88;4943488;29;20050;-69
2023/05/30 07:57:41;;;;;;;26.92;16.83;;;;;;;18.11;25.29;96255.78;4941169;28;20070;-68
2023/05/30 08:00:08;;;;;;;11.27;5.40;;;;;;;18.29;24.71;96266.72;4944480;29;20224;-68
2023/05/30 08:02:37;;;;;;;16.02;9.27;;;;;;;18.29;25.18;96269.41;4940536;29;20039;-68
2023/05/30 08:05:02;;;;;;;9.95;5.43;;;;;;;18.31;23.76;96270.03;4938583;28;20120;-68
2023/05/30 08:07:28;;;;;;;10.77;3.50;;;;;;;18.51;23.15;96263.75;4942923;29;20043;-68
2023/05/30 08:09:53;;;;;;;17.88;11.07;;;;;;;18.47;23.52;96262.53;4944301;28;20039;-68
2023/05/30 08:12:19;;;;;;;15.48;7.05;;;;;;;18.64;23.02;96262.91;4943449;28;20031;-68
2023/05/30 08:14:45;;;;;;;17.90;9.52;;;;;;;18.53;23.45;96255.44;4941753;28;20039;-68
2023/05/30 08:17:11;;;;;;;8.80;4.53;;;;;;;18.95;23.63;96260.47;4940840;28;20134;-68
2023/05/30 08:19:37;;;;;;;12.93;7.45;;;;;;;18.88;23.09;96259.66;4945832;28;20065;-68
2023/05/30 08:22:03;;;;;;;13.23;6.45;;;;;;;18.69;24.04;96262.25;4942958;28;20035;-68
2023/05/30 08:24:29;;;;;;;14.52;7.68;;;;;;;18.97;22.99;96271.88;4943218;28;20554;-68
2023/05/30 08:26:54;;;;;;;16.67;9.95;;;;;;;19.14;23.08;96269.47;4945766;28;20035;-69
2023/05/30 08:29:21;;;;;;;15.07;5.47;;;;;;;18.98;22.87;96261.91;4943977;29;20039;-68
2023/05/30 08:31:46;;;;;;;19.43;11.90;;;;;;;19.33;23.65;96261.50;4943880;29;20047;-68
2023/05/30 08:34:12;;;;;;;20.75;10.85;;;;;;;19.26;22.98;96264.22;4940572;28;20577;-68
2023/05/30 08:36:37;;;;;;;14.48;7.90;;;;;;;19.38;22.81;96260.84;4943182;28;20054;-68
2023/05/30 08:39:03;;;;;;;21.02;12.63;;;;;;;19.36;23.68;96269.16;4943295;29;20080;-67
2023/05/30 08:41:29;;;;;;;8.43;3.05;;;;;;;19.65;23.16;96263.34;4942234;28;20050;-68
2023/05/30 08:43:55;;;;;;;19.25;8.63;;;;;;;19.43;21.86;96269.09;4941667;29;20532;-68
2023/05/30 08:46:20;;;;;;;11.98;6.78;;;;;;;19.53;23.47;96277.53;4943497;28;20039;-68
2023/05/30 08:48:46;;;;;;;14.80;10.50;;;;;;;19.82;23.23;96272.50;4918665;28;20047;-68
2023/05/30 08:51:17;;;;;;;18.80;12.10;;;;;;;19.89;23.07;96272.47;4915622;29;20046;-67
2023/05/30 08:53:45;;;;;;;18.90;11.95;;;;;;;20.15;21.92;96275.16;4910941;29;20055;-67
2023/05/30 08:56:32;;;;;;;19.15;13.45;;;;;;;20.23;21.78;96270.28;4919847;29;20277;-68
2023/05/30 08:58:57;;;;;;;16.15;9.63;;;;;;;20.10;21.89;96270.44;4924146;29;20502;-68
2023/05/30 09:01:23;;;;;;;10.00;3.78;;;;;;;20.46;21.52;96265.25;4915187;29;20114;-69
2023/05/30 09:03:48;;;;;;;17.83;7.35;;;;;;;20.66;20.54;96269.63;4924312;29;20311;-68
2023/05/30 09:06:14;;;;;;;15.60;9.73;;;;;;;20.36;20.74;96271.16;4916780;29;20059;-68
2023/05/30 09:08:41;;;;;;;18.55;10.90;;;;;;;20.35;21.51;96270.38;4940891;28;20030;-68
2023/05/30 09:11:06;;;;;;;;;;;;;;;20.38;22.34;96268.25;4935010;28;20654;-68
2023/05/30 09:13:32;;;;;;;11.27;5.90;;;;;;;20.41;22.17;96265.09;4942082;28;19927;-68
2023/05/30 09:15:57;;;;;;;13.10;4.32;;;;;;;20.65;21.42;96273.38;4914265;29;20031;-67
2023/05/30 09:18:23;;;;;;;18.17;12.15;;;;;;;20.71;21.62;96267.06;4943049;28;20515;-67
2023/05/30 09:20:48;;;;;;;13.45;8.07;;;;;;;20.89;20.19;96265.38;4943696;29;20032;-68
2023/05/30 09:23:13;;;;;;;14.75;7.68;;;;;;;20.76;19.72;96274.50;4939316;29;20150;-68
2023/05/30 09:25:48;;;;;;;12.60;5.65;;;;;;;21.02;19.59;96259.78;4941038;28;20054;-68
2023/05/30 09:28:14;;;;;;;11.18;5.43;;;;;;;21.09;20.70;96268.66;4943861;29;20458;-67
2023/05/30 09:30:59;;;;;;;11.02;4.85;;;;;;;21.20;18.67;96269.72;4926295;29;20038;-68
2023/05/30 09:33:31;;;;;;;12.05;5.65;;;;;;;20.70;19.15;96277.06;4940853;28;20043;-68
2023/05/30 09:35:57;;;;;;;12.82;7.30;;;;;;;20.91;18.67;96271.38;4932936;29;20442;-67
2023/05/30 09:38:24;;;;;;;10.30;5.18;;;;;;;20.79;18.38;96269.47;4939950;28;20062;-69
2023/05/30 09:40:51;;;;;;;6.53;2.95;;;;;;;21.28;18.88;96274.00;4942434;28;20118;-69
2023/05/30 09:43:34;;;;;;;15.52;9.80;;;;;;;21.06;19.71;96270.97;4924270;29;20094;-68
2023/05/30 09:46:05;;;;;;;11.77;6.53;;;;;;;20.90;18.56;96267.84;4940383;28;20043;-68
2023/05/30 09:48:31;;;;;;;13.55;4.53;;;;;;;20.60;19.07;96274.03;4941655;29;20336;-68
2023/05/30 09:51:00;;;;;;;14.43;9.75;;;;;;;21.11;18.97;96266.50;4941927;28;20090;-68
2023/05/30 09:53:32;;;;;;;11.48;5.63;;;;;;;20.92;20.20;96267.63;4940598;28;20043;-68
2023/05/30 09:55:58;;;;;;;8.07;4.15;;;;;;;21.30;20.11;96274.63;4942565;29;20259;-68
2023/05/30 09:58:23;;;;;;;11.55;4.88;;;;;;;21.48;19.20;96281.03;4923464;29;20723;-68
2023/05/30 10:00:51;;;;;;;10.80;5.88;;;;;;;21.41;17.91;96272.19;4941582;29;20141;-68
2023/05/30 10:03:17;;;;;;;8.82;3.97;;;;;;;21.59;17.76;96273.97;4942719;29;20237;-68
2023/05/30 10:05:42;;;;;;;13.20;6.93;;;;;;;21.56;18.98;96261.72;4940498;28;20588;-68
2023/05/30 10:08:08;;;;;;;13.80;8.02;;;;;;;21.93;20.11;96252.59;4936338;28;20791;-68
2023/05/30 10:10:33;;;;;;;18.23;10.70;;;;;;;21.47;18.50;96257.69;4915640;29;20043;-68
2023/05/30 10:13:00;;;;;;;8.75;3.85;;;;;;;22.05;18.31;96257.97;4924493;28;20031;-68
2023/05/30 10:15:25;;;;;;;16.23;8.90;;;;;;;22.09;19.31;96258.34;4942787;28;20031;-68
2023/05/30 10:18:07;;;;;;;7.38;2.60;;;;;;;22.52;18.92;96262.53;4943407;28;20043;-68
2023/05/30 10:20:33;;;;;;;11.27;7.80;;;;;;;22.31;19.17;96260.44;4940449;28;20386;-68
2023/05/30 10:22:58;;;;;;;14.20;10.20;;;;;;;22.26;18.31;96261.97;4909315;29;20038;-69
2023/05/30 10:25:26;;;;;;;15.25;7.68;;;;;;;22.40;18.63;96256.31;4923406;28;20286;-69
2023/05/30 10:27:52;;;;;;;12.82;7.97;;;;;;;22.58;18.61;96255.34;4935951;28;20193;-69
2023/05/30 10:30:26;;;;;;;9.73;4.75;;;;;;;22.65;18.56;96261.47;4940884;29;20349;-69
2023/05/30 10:32:56;;;;;;;13.30;5.63;;;;;;;22.58;17.59;96262.66;4942053;29;20035;-69
2023/05/30 10:35:22;;;;;;;9.90;4.05;;;;;;;22.69;19.22;96256.38;4940386;28;20063;-69
2023/05/30 10:37:47;;;;;;;7.32;3.85;;;;;;;22.86;18.70;96259.13;4924233;29;20046;-69
2023/05/30 10:40:17;;;;;;;13.48;6.43;;;;;;;22.89;17.94;96249.69;4923509;28;20027;-70
2023/05/30 10:43:06;;;;;;;7.70;3.70;;;;;;;23.20;19.02;96250.28;4918620;29;20110;-69
2023/05/30 10:45:53;;;;;;;14.63;9.50;;;;;;;23.16;19.46;96244.53;4936062;28;20142;-69
2023/05/30 10:49:01;;;;;;;12.90;8.50;;;;;;;22.96;18.48;96238.66;4940735;29;20075;-69
2023/05/30 10:51:26;;;;;;;8.88;5.22;;;;;;;23.36;18.42;96245.09;4916403;28;20142;-69
2023/05/30 10:53:52;;;;;;;10.38;6.28;;;;;;;23.41;17.99;96237.88;4942013;28;20529;-69
2023/05/30 10:56:27;;;;;;;11.80;6.40;;;;;;;23.20;17.91;96244.00;4939512;28;20024;-68
2023/05/30 10:58:55;;;;;;;11.52;6.38;;;;;;;23.14;18.90;96240.38;4940669;28;20043;-68
2023/05/30 11:01:24;;;;;;;7.13;2.85;;;;;;;23.66;17.68;96241.25;4939316;28;20043;-68
2023/05/30 11:04:12;;;;;;;8.68;5.70;;;;;;;22.88;18.18;96242.63;4938697;29;20031;-67
2023/05/30 11:06:38;;;;;;;11.82;5.88;;;;;;;23.27;18.10;96231.09;4941291;28;20050;-68
2023/05/30 11:09:17;;;;;;;9.10;5.93;;;;;;;22.88;19.45;96232.56;4941381;28;20465;-68
2023/05/30 11:11:44;;;;;;;8.07;4.57;;;;;;;22.94;19.15;96230.78;4940224;28;20027;-68
2023/05/30 11:14:10;;;;;;;11.93;5.05;;;;;;;23.17;19.14;96235.31;4941548;28;20502;-68
2023/05/30 11:16:54;;;;;;;8.35;4.63;;;;;;;23.50;17.69;96223.88;4940849;28;20069;-68
2023/05/30 11:19:20;;;;;;;7.90;2.95;;;;;;;23.04;18.60;96227.41;4941734;28;20093;-67
2023/05/30 11:21:55;;;;;;;6.40;2.95;;;;;;;23.25;18.79;96222.41;4938455;28;20130;-68
2023/05/30 11:24:21;;;;;;;11.00;3.90;;;;;;;23.29;18.57;96228.97;4939958;29;20138;-67
2023/05/30 11:27:10;;;;;;;11.25;5.63;;;;;;;23.47;17.86;96213.50;4938742;28;20109;-67
2023/05/30 11:29:49;;;;;;;11.60;7.85;;;;;;;23.51;17.87;96218.19;4930853;28;20051;-67
2023/05/30 11:32:23;;;;;;;16.38;8.50;;;;;;;23.67;18.68;96213.84;4929202;29;20042;-68